createdAt,value
2019-02-23T00:00:51.387Z,34.29
2019-02-23T00:02:01.331Z,34.39
2019-02-23T00:03:10.544Z,33.91
2019-02-23T00:04:19.777Z,34.28
2019-02-23T00:05:28.986Z,34.28
2019-02-23T00:06:38.838Z,34.38
2019-02-23T00:07:48.675Z,34.38
2019-02-23T00:08:58.381Z,34.28
2019-02-23T00:10:07.744Z,34.28
2019-02-23T00:11:17.379Z,34.28
2019-02-23T00:12:26.396Z,34.38
2019-02-23T00:13:36.077Z,34.38
2019-02-23T00:14:45.479Z,34.28
2019-02-23T00:15:55.140Z,34.38
2019-02-23T00:17:04.769Z,34.38
2019-02-23T00:18:15.246Z,34.38
2019-02-23T00:19:27.637Z,34.38
2019-02-23T00:20:37.432Z,34.38
2019-02-23T00:21:46.789Z,34.38
2019-02-23T00:22:56.530Z,34.38
2019-02-23T00:24:05.680Z,34.47
2019-02-23T00:25:15.058Z,34.38
2019-02-23T00:26:24.190Z,34.38
2019-02-23T00:27:33.627Z,34.38
2019-02-23T00:28:43.032Z,34.38
2019-02-23T00:29:52.575Z,34.38
2019-02-23T00:31:01.893Z,34.38
2019-02-23T00:32:11.264Z,34.56
2019-02-23T00:33:20.811Z,33.89
2019-02-23T00:34:30.530Z,34.47
2019-02-23T00:35:40.222Z,33.98
2019-02-23T00:36:49.809Z,34.47
2019-02-23T00:37:59.270Z,34.47
2019-02-23T00:39:08.902Z,33.98
2019-02-23T00:40:18.285Z,33.98
2019-02-23T00:41:27.673Z,33.98
2019-02-23T00:42:36.845Z,33.98
2019-02-23T00:43:46.423Z,33.98
2019-02-23T00:44:55.487Z,33.89
2019-02-23T00:46:04.519Z,34.08
2019-02-23T00:47:14.341Z,34.08
2019-02-23T00:48:23.394Z,34.18
2019-02-23T00:49:38.825Z,34.18
2019-02-23T00:50:48.125Z,33.98
2019-02-23T00:51:57.299Z,33.8
2019-02-23T00:53:06.916Z,34.08
2019-02-23T00:54:16.191Z,34.18
2019-02-23T00:55:25.521Z,34.18
2019-02-23T00:56:34.505Z,34.18
2019-02-23T00:57:43.592Z,34.08
2019-02-23T00:58:52.718Z,34.18
2019-02-23T01:00:02.345Z,34.18
2019-02-23T01:01:12.000Z,34.18
2019-02-23T01:02:21.169Z,34.08
2019-02-23T01:03:30.247Z,34.18
2019-02-23T01:04:39.591Z,34.26
2019-02-23T01:05:48.924Z,34.08
2019-02-23T01:06:57.992Z,34.28
2019-02-23T01:08:07.293Z,34.18
2019-02-23T01:09:16.693Z,34.08
2019-02-23T01:10:26.280Z,34.16
2019-02-23T01:11:35.659Z,34.16
2019-02-23T01:12:45.112Z,34.06
2019-02-23T01:13:54.231Z,33.8
2019-02-23T01:15:03.166Z,33.78
2019-02-23T01:16:12.288Z,33.97
2019-02-23T01:17:21.577Z,34.06
2019-02-23T01:18:31.113Z,33.87
2019-02-23T01:19:49.853Z,33.87
2019-02-23T01:20:58.980Z,33.87
2019-02-23T01:22:09.038Z,33.78
2019-02-23T01:23:18.686Z,33.87
2019-02-23T01:24:28.285Z,33.78
2019-02-23T01:25:37.916Z,33.97
2019-02-23T01:26:46.975Z,33.87
2019-02-23T01:27:56.283Z,33.78
2019-02-23T01:29:05.389Z,33.78
2019-02-23T01:30:15.350Z,33.97
2019-02-23T01:31:24.774Z,33.87
2019-02-23T01:32:34.609Z,33.58
2019-02-23T01:33:44.023Z,33.97
2019-02-23T01:34:53.136Z,33.87
2019-02-23T01:36:02.275Z,33.68
2019-02-23T01:37:11.081Z,33.68
2019-02-23T01:38:20.155Z,33.58
2019-02-23T01:39:29.541Z,33.78
2019-02-23T01:40:39.423Z,33.68
2019-02-23T01:41:48.831Z,33.68
2019-02-23T01:42:58.663Z,33.68
2019-02-23T01:44:07.970Z,33.68
2019-02-23T01:45:17.273Z,33.58
2019-02-23T01:46:26.925Z,33.68
2019-02-23T01:47:36.362Z,33.58
2019-02-23T01:48:45.719Z,33.78
2019-02-23T01:50:01.422Z,33.78
2019-02-23T01:51:10.934Z,33.68
2019-02-23T01:52:20.565Z,33.2
2019-02-23T01:53:30.190Z,33.2
2019-02-23T01:54:39.301Z,33.2
2019-02-23T01:55:48.648Z,33.68
2019-02-23T01:56:58.210Z,33.2
2019-02-23T01:58:07.837Z,33.29
2019-02-23T01:59:17.134Z,33.78
2019-02-23T02:00:26.719Z,33.58
2019-02-23T02:01:36.132Z,33.58
2019-02-23T02:02:45.366Z,33.87
2019-02-23T02:03:54.754Z,33.48
2019-02-23T02:05:04.117Z,33.39
2019-02-23T02:06:13.192Z,33.68
2019-02-23T02:07:22.460Z,33.39
2019-02-23T02:08:31.431Z,33.29
2019-02-23T02:09:41.033Z,33.48
2019-02-23T02:10:50.643Z,33.58
2019-02-23T02:12:00.075Z,33.29
2019-02-23T02:13:09.741Z,33.48
2019-02-23T02:14:19.091Z,33.58
2019-02-23T02:15:28.524Z,33.68
2019-02-23T02:16:37.994Z,33.78
2019-02-23T02:17:47.397Z,33.78
2019-02-23T02:18:57.042Z,33.78
2019-02-23T02:20:13.393Z,33.78
2019-02-23T02:21:22.958Z,33.68
2019-02-23T02:22:32.334Z,33.58
2019-02-23T02:23:41.533Z,33.29
2019-02-23T02:24:51.204Z,33.68
2019-02-23T02:26:01.008Z,33.29
2019-02-23T02:27:10.400Z,33.76
2019-02-23T02:28:19.767Z,33.29
2019-02-23T02:29:29.058Z,33.78
2019-02-23T02:30:38.402Z,33.39
2019-02-23T02:31:48.330Z,33.29
2019-02-23T02:32:57.753Z,33.48
2019-02-23T02:34:07.028Z,33.58
2019-02-23T02:35:16.088Z,33.48
2019-02-23T02:36:25.620Z,33.58
2019-02-23T02:37:35.217Z,33.48
2019-02-23T02:38:44.810Z,33.39
2019-02-23T02:39:54.316Z,33.48
2019-02-23T02:41:03.608Z,33.58
2019-02-23T02:42:13.462Z,33.57
2019-02-23T02:43:23.009Z,33.48
2019-02-23T02:44:32.819Z,33.47
2019-02-23T02:45:42.171Z,33.48
2019-02-23T02:46:51.980Z,33.48
2019-02-23T02:48:01.738Z,33.47
2019-02-23T02:49:11.066Z,33.47
2019-02-23T02:50:26.945Z,33.37
2019-02-23T02:51:36.781Z,33.37
2019-02-23T02:52:45.929Z,33.37
2019-02-23T02:53:55.456Z,33.37
2019-02-23T02:55:04.747Z,33.37
2019-02-23T02:56:14.079Z,33.28
2019-02-23T02:57:23.391Z,33.18
2019-02-23T02:58:33.415Z,33.18
2019-02-23T02:59:43.012Z,33.28
2019-02-23T03:00:52.023Z,33.47
2019-02-23T03:02:01.821Z,33.28
2019-02-23T03:03:10.862Z,33.18
2019-02-23T03:04:20.655Z,33.18
2019-02-23T03:05:30.555Z,33.18
2019-02-23T03:06:39.573Z,33.28
2019-02-23T03:07:49.418Z,33.28
2019-02-23T03:08:58.981Z,33.09
2019-02-23T03:10:08.372Z,33.18
2019-02-23T03:11:17.460Z,33.09
2019-02-23T03:12:27.293Z,33.66
2019-02-23T03:13:36.552Z,32.99
2019-02-23T03:14:45.946Z,32.99
2019-02-23T03:15:55.775Z,33.09
2019-02-23T03:17:05.035Z,33.09
2019-02-23T03:18:14.136Z,33.18
2019-02-23T03:19:23.031Z,33.09
2019-02-23T03:20:39.299Z,32.99
2019-02-23T03:21:48.883Z,32.99
2019-02-23T03:22:58.239Z,32.89
2019-02-23T03:24:07.243Z,32.99
2019-02-23T03:25:16.765Z,32.99
2019-02-23T03:26:26.133Z,33.28
2019-02-23T03:27:35.167Z,33.28
2019-02-23T03:28:45.192Z,33.28
2019-02-23T03:29:54.544Z,33.37
2019-02-23T03:31:04.592Z,33.47
2019-02-23T03:32:14.821Z,33.47
2019-02-23T03:33:24.915Z,33.47
2019-02-23T03:34:34.982Z,33.28
2019-02-23T03:35:44.556Z,33.47
2019-02-23T03:36:53.658Z,33.37
2019-02-23T03:38:03.246Z,33.37
2019-02-23T03:39:12.691Z,33.28
2019-02-23T03:40:22.502Z,33.37
2019-02-23T03:41:32.342Z,33.47
2019-02-23T03:42:41.999Z,33.47
2019-02-23T03:43:51.838Z,33.37
2019-02-23T03:45:01.172Z,33.37
2019-02-23T03:46:10.974Z,33.18
2019-02-23T03:47:20.611Z,33.37
2019-02-23T03:48:30.172Z,33.37
2019-02-23T03:49:39.220Z,33.47
2019-02-23T03:50:51.986Z,33.37
2019-02-23T03:52:01.607Z,33.28
2019-02-23T03:53:11.496Z,33.28
2019-02-23T03:54:21.437Z,33.18
2019-02-23T03:55:31.072Z,33.18
2019-02-23T03:56:40.193Z,33.09
2019-02-23T03:57:48.963Z,33.18
2019-02-23T03:58:58.002Z,33.09
2019-02-23T04:00:07.553Z,33.09
2019-02-23T04:01:16.920Z,33.09
2019-02-23T04:02:26.445Z,33.18
2019-02-23T04:03:35.778Z,33.09
2019-02-23T04:04:45.202Z,33.09
2019-02-23T04:05:54.272Z,33.09
2019-02-23T04:07:03.854Z,33.18
2019-02-23T04:08:13.643Z,33.28
2019-02-23T04:09:23.220Z,33.28
2019-02-23T04:10:33.096Z,33.28
2019-02-23T04:11:43.004Z,33.09
2019-02-23T04:12:52.991Z,32.99
2019-02-23T04:14:02.323Z,33.18
2019-02-23T04:15:12.753Z,33.28
2019-02-23T04:16:22.295Z,33.18
2019-02-23T04:17:31.671Z,32.99
2019-02-23T04:18:40.940Z,33.18
2019-02-23T04:19:50.771Z,32.99
2019-02-23T04:21:04.148Z,32.99
2019-02-23T04:22:13.724Z,33.18
2019-02-23T04:23:23.063Z,33.18
2019-02-23T04:24:32.636Z,33.09
2019-02-23T04:25:41.661Z,33.09
2019-02-23T04:26:50.741Z,33.09
2019-02-23T04:28:00.085Z,33.09
2019-02-23T04:29:09.901Z,33.09
2019-02-23T04:30:19.671Z,32.97
2019-02-23T04:31:29.470Z,32.87
2019-02-23T04:32:38.847Z,32.89
2019-02-23T04:33:48.163Z,32.89
2019-02-23T04:34:57.489Z,32.99
2019-02-23T04:36:07.077Z,32.87
2019-02-23T04:37:15.878Z,32.97
2019-02-23T04:38:25.173Z,32.87
2019-02-23T04:39:34.693Z,32.87
2019-02-23T04:40:43.985Z,32.97
2019-02-23T04:41:53.806Z,32.97
2019-02-23T04:43:02.613Z,32.78
2019-02-23T04:44:11.943Z,32.99
2019-02-23T04:45:21.228Z,32.78
2019-02-23T04:46:30.833Z,33.07
2019-02-23T04:47:40.174Z,33.07
2019-02-23T04:48:49.754Z,32.87
2019-02-23T04:49:59.324Z,32.87
2019-02-23T04:51:17.111Z,32.87
2019-02-23T04:52:26.924Z,32.7
2019-02-23T04:53:37.041Z,32.87
2019-02-23T04:54:46.388Z,32.97
2019-02-23T04:55:55.691Z,32.87
2019-02-23T04:57:05.255Z,32.78
2019-02-23T04:58:15.214Z,32.87
2019-02-23T04:59:24.541Z,32.87
2019-02-23T05:00:34.326Z,33.07
2019-02-23T05:01:43.911Z,32.87
2019-02-23T05:02:53.439Z,33.07
2019-02-23T05:04:03.608Z,33.17
2019-02-23T05:05:12.918Z,32.68
2019-02-23T05:06:22.075Z,33.07
2019-02-23T05:07:31.772Z,32.87
2019-02-23T05:08:41.296Z,32.59
2019-02-23T05:09:50.417Z,33.07
2019-02-23T05:10:59.431Z,32.87
2019-02-23T05:12:09.021Z,32.78
2019-02-23T05:13:18.377Z,32.49
2019-02-23T05:14:27.948Z,32.78
2019-02-23T05:15:37.671Z,32.68
2019-02-23T05:16:46.979Z,33.07
2019-02-23T05:17:57.798Z,32.49
2019-02-23T05:19:07.255Z,32.97
2019-02-23T05:20:16.871Z,32.59
2019-02-23T05:21:29.322Z,32.49
2019-02-23T05:22:38.703Z,32.59
2019-02-23T05:23:48.104Z,32.59
2019-02-23T05:24:57.249Z,32.59
2019-02-23T05:26:07.044Z,32.49
2019-02-23T05:27:16.385Z,32.68
2019-02-23T05:28:25.943Z,32.59
2019-02-23T05:29:35.510Z,32.68
2019-02-23T05:30:45.560Z,32.59
2019-02-23T05:31:54.958Z,32.59
2019-02-23T05:33:03.952Z,32.59
2019-02-23T05:34:13.575Z,32.59
2019-02-23T05:35:23.139Z,32.59
2019-02-23T05:36:32.908Z,32.59
2019-02-23T05:37:42.188Z,32.59
2019-02-23T05:38:51.809Z,32.59
2019-02-23T05:40:01.937Z,32.59
2019-02-23T05:41:11.465Z,32.78
2019-02-23T05:42:20.790Z,32.59
2019-02-23T05:43:29.883Z,32.59
2019-02-23T05:44:39.139Z,32.59
2019-02-23T05:45:48.968Z,32.49
2019-02-23T05:46:58.578Z,32.59
2019-02-23T05:48:07.727Z,32.39
2019-02-23T05:49:17.505Z,32.49
2019-02-23T05:50:27.045Z,32.39
2019-02-23T05:51:41.125Z,32.59
2019-02-23T05:52:50.717Z,32.49
2019-02-23T05:54:00.274Z,32.39
2019-02-23T05:55:10.377Z,32.49
2019-02-23T05:56:19.661Z,32.49
2019-02-23T05:57:29.009Z,32.39
2019-02-23T05:58:37.820Z,32.68
2019-02-23T05:59:46.861Z,32.39
2019-02-23T06:00:56.380Z,32.59
2019-02-23T06:02:06.148Z,32.59
2019-02-23T06:03:15.688Z,32.49
2019-02-23T06:04:25.190Z,32.39
2019-02-23T06:05:35.019Z,32.59
2019-02-23T06:06:44.236Z,32.49
2019-02-23T06:07:54.244Z,32.49
2019-02-23T06:09:03.862Z,32.39
2019-02-23T06:10:12.900Z,32.49
2019-02-23T06:11:22.732Z,32.49
2019-02-23T06:12:32.266Z,32.39
2019-02-23T06:13:41.920Z,32.49
2019-02-23T06:14:51.498Z,32.59
2019-02-23T06:16:01.028Z,32.39
2019-02-23T06:17:10.564Z,32.59
2019-02-23T06:18:19.914Z,32.59
2019-02-23T06:19:29.749Z,32.29
2019-02-23T06:20:39.079Z,32.49
2019-02-23T06:21:56.167Z,32.49
2019-02-23T06:23:05.754Z,32.49
2019-02-23T06:24:15.826Z,32.39
2019-02-23T06:25:24.934Z,32.59
2019-02-23T06:26:34.809Z,32.39
2019-02-23T06:27:44.366Z,32.49
2019-02-23T06:28:53.701Z,32.29
2019-02-23T06:30:02.763Z,32.29
2019-02-23T06:31:12.773Z,32.29
2019-02-23T06:32:22.393Z,32.29
2019-02-23T06:33:31.651Z,32.1
2019-02-23T06:34:41.227Z,32.2
2019-02-23T06:35:51.003Z,32.2
2019-02-23T06:37:00.023Z,32.2
2019-02-23T06:38:09.510Z,32.1
2019-02-23T06:39:19.269Z,32.29
2019-02-23T06:40:28.853Z,32.29
2019-02-23T06:41:38.122Z,32.1
2019-02-23T06:42:47.432Z,32.29
2019-02-23T06:43:56.697Z,32.2
2019-02-23T06:45:05.831Z,32.01
2019-02-23T06:46:14.639Z,32.01
2019-02-23T06:47:23.710Z,32.2
2019-02-23T06:48:33.008Z,32.1
2019-02-23T06:49:42.592Z,32.2
2019-02-23T06:50:51.399Z,32.2
2019-02-23T06:52:06.762Z,32.1
2019-02-23T06:53:16.329Z,32.1
2019-02-23T06:54:25.923Z,32.2
2019-02-23T06:55:35.191Z,32.18
2019-02-23T06:56:44.192Z,32.2
2019-02-23T06:57:53.249Z,32.1
2019-02-23T06:59:02.841Z,32.01
2019-02-23T07:00:11.943Z,32.01
2019-02-23T07:01:21.301Z,32.09
2019-02-23T07:02:30.863Z,31.91
2019-02-23T07:03:40.474Z,31.91
2019-02-23T07:04:50.266Z,32.01
2019-02-23T07:06:00.129Z,32.01
2019-02-23T07:07:09.938Z,31.91
2019-02-23T07:08:19.440Z,31.91
2019-02-23T07:09:28.776Z,32.1
2019-02-23T07:10:38.122Z,32.01
2019-02-23T07:11:47.436Z,32.1
2019-02-23T07:12:56.455Z,31.72
2019-02-23T07:14:05.684Z,31.91
2019-02-23T07:15:15.016Z,32.1
2019-02-23T07:16:24.539Z,31.81
2019-02-23T07:17:33.824Z,31.72
2019-02-23T07:18:42.645Z,31.91
2019-02-23T07:19:51.937Z,31.91
2019-02-23T07:21:01.430Z,31.8
2019-02-23T07:22:17.891Z,31.81
2019-02-23T07:23:27.153Z,31.91
2019-02-23T07:24:36.925Z,32.01
2019-02-23T07:25:46.446Z,31.72
2019-02-23T07:26:55.994Z,31.72
2019-02-23T07:28:05.212Z,31.72
2019-02-23T07:29:15.803Z,31.81
2019-02-23T07:30:24.927Z,31.8
2019-02-23T07:31:34.512Z,31.81
2019-02-23T07:32:44.387Z,31.81
2019-02-23T07:33:53.512Z,31.72
2019-02-23T07:35:03.204Z,31.81
2019-02-23T07:36:12.803Z,31.7
2019-02-23T07:37:21.794Z,31.72
2019-02-23T07:38:30.815Z,31.8
2019-02-23T07:39:42.754Z,31.81
2019-02-23T07:40:52.330Z,31.7
2019-02-23T07:42:01.580Z,31.6
2019-02-23T07:43:11.113Z,31.72
2019-02-23T07:44:20.264Z,31.7
2019-02-23T07:45:29.717Z,31.7
2019-02-23T07:46:39.224Z,31.8
2019-02-23T07:47:48.299Z,31.6
2019-02-23T07:48:57.916Z,31.7
2019-02-23T07:50:06.976Z,31.8
2019-02-23T07:51:16.596Z,31.6
2019-02-23T07:52:29.171Z,31.7
2019-02-23T07:53:38.985Z,31.7
2019-02-23T07:54:48.038Z,31.51
2019-02-23T07:55:57.819Z,31.6
2019-02-23T07:57:07.136Z,31.6
2019-02-23T07:58:16.948Z,31.6
2019-02-23T07:59:26.451Z,31.6
2019-02-23T08:00:35.778Z,31.6
2019-02-23T08:01:45.330Z,31.6
2019-02-23T08:02:54.328Z,31.6
2019-02-23T08:04:03.875Z,31.7
2019-02-23T08:05:13.390Z,31.6
2019-02-23T08:06:22.952Z,31.7
2019-02-23T08:07:32.498Z,31.7
2019-02-23T08:08:44.840Z,31.41
2019-02-23T08:09:54.851Z,31.7
2019-02-23T08:11:04.379Z,31.7
2019-02-23T08:12:13.378Z,31.51
2019-02-23T08:13:22.865Z,31.51
2019-02-23T08:14:32.149Z,31.51
2019-02-23T08:15:41.415Z,31.32
2019-02-23T08:16:50.460Z,31.6
2019-02-23T08:17:59.504Z,31.7
2019-02-23T08:19:09.152Z,31.51
2019-02-23T08:20:19.204Z,31.6
2019-02-23T08:21:28.964Z,31.6
2019-02-23T08:22:39.820Z,31.51
2019-02-23T08:23:48.867Z,31.51
2019-02-23T08:25:10.772Z,31.6
2019-02-23T08:26:20.409Z,31.51
2019-02-23T08:27:29.723Z,31.32
2019-02-23T08:28:39.458Z,31.51
2019-02-23T08:29:48.786Z,31.51
2019-02-23T08:30:58.413Z,31.51
2019-02-23T08:32:07.998Z,31.41
2019-02-23T08:33:17.574Z,31.41
2019-02-23T08:34:27.430Z,31.51
2019-02-23T08:35:36.844Z,31.41
2019-02-23T08:36:46.640Z,31.41
2019-02-23T08:37:55.875Z,31.51
2019-02-23T08:39:04.678Z,31.41
2019-02-23T08:40:13.954Z,31.41
2019-02-23T08:41:23.567Z,31.41
2019-02-23T08:42:33.069Z,31.43
2019-02-23T08:43:43.146Z,31.43
2019-02-23T08:44:52.435Z,31.43
2019-02-23T08:46:01.982Z,31.33
2019-02-23T08:47:11.214Z,31.24
2019-02-23T08:48:20.227Z,31.22
2019-02-23T08:49:29.462Z,31.33
2019-02-23T08:50:38.518Z,31.24
2019-02-23T08:51:48.324Z,31.14
2019-02-23T08:52:57.314Z,31.33
2019-02-23T08:54:06.845Z,31.33
2019-02-23T08:55:15.684Z,31.24
2019-02-23T08:56:25.219Z,31.24
2019-02-23T08:57:36.074Z,31.33
2019-02-23T08:58:45.096Z,31.24
2019-02-23T08:59:54.909Z,31.24
2019-02-23T09:01:04.252Z,31.32
2019-02-23T09:02:13.036Z,31.22
2019-02-23T09:03:22.329Z,31.22
2019-02-23T09:04:31.821Z,31.12
2019-02-23T09:05:40.861Z,31.24
2019-02-23T09:06:50.162Z,31.12
2019-02-23T09:07:59.667Z,31.33
2019-02-23T09:09:10.670Z,31.24
2019-02-23T09:10:20.170Z,31.24
2019-02-23T09:11:29.657Z,31.12
2019-02-23T09:12:39.147Z,31.12
2019-02-23T09:13:48.518Z,31.03
2019-02-23T09:14:58.295Z,31.03
2019-02-23T09:16:07.734Z,31.22
2019-02-23T09:17:17.070Z,31.22
2019-02-23T09:18:26.421Z,31.12
2019-02-23T09:19:35.703Z,30.94
2019-02-23T09:20:44.913Z,31.12
2019-02-23T09:21:56.649Z,31.14
2019-02-23T09:23:05.933Z,31.14
2019-02-23T09:24:15.217Z,31.03
2019-02-23T09:25:24.461Z,31.12
2019-02-23T09:26:33.715Z,31.12
2019-02-23T09:27:43.000Z,30.93
2019-02-23T09:28:52.611Z,30.94
2019-02-23T09:30:02.083Z,30.93
2019-02-23T09:31:11.584Z,31.03
2019-02-23T09:32:20.898Z,31.03
2019-02-23T09:33:29.877Z,30.93
2019-02-23T09:34:39.126Z,30.93
2019-02-23T09:35:48.411Z,30.93
2019-02-23T09:36:57.541Z,30.83
2019-02-23T09:38:07.039Z,30.83
2019-02-23T09:39:16.300Z,30.93
2019-02-23T09:40:26.321Z,30.93
2019-02-23T09:41:35.587Z,30.93
2019-02-23T09:42:45.134Z,30.93
2019-02-23T09:43:54.455Z,30.93
2019-02-23T09:45:03.768Z,30.74
2019-02-23T09:46:13.265Z,30.74
2019-02-23T09:47:22.763Z,30.74
2019-02-23T09:48:31.997Z,30.83
2019-02-23T09:49:41.496Z,30.64
2019-02-23T09:50:50.762Z,30.64
2019-02-23T09:51:59.989Z,30.74
2019-02-23T09:53:13.895Z,30.55
2019-02-23T09:54:23.663Z,30.46
2019-02-23T09:55:35.448Z,30.46
2019-02-23T09:56:45.065Z,30.18
2019-02-23T09:57:54.606Z,30.27
2019-02-23T09:59:03.386Z,30.18
2019-02-23T10:00:12.463Z,30.08
2019-02-23T10:01:21.713Z,30.18
2019-02-23T10:02:30.984Z,30
2019-02-23T10:03:39.976Z,29.9
2019-02-23T10:04:49.531Z,29.42
2019-02-23T10:05:58.968Z,29.9
2019-02-23T10:07:08.546Z,29.42
2019-02-23T10:08:18.137Z,29.22
2019-02-23T10:09:27.686Z,29.42
2019-02-23T10:10:37.272Z,29.53
2019-02-23T10:11:46.615Z,29.24
2019-02-23T10:12:55.434Z,29.34
2019-02-23T10:14:07.192Z,29.34
2019-02-23T10:15:17.008Z,29.34
2019-02-23T10:16:26.788Z,29.34
2019-02-23T10:17:36.563Z,28.85
2019-02-23T10:18:46.366Z,28.95
2019-02-23T10:19:56.104Z,29.06
2019-02-23T10:21:05.318Z,29.16
2019-02-23T10:22:14.339Z,29.06
2019-02-23T10:23:24.594Z,29.06
2019-02-23T10:24:34.422Z,29.06
2019-02-23T10:25:44.014Z,29.06
2019-02-23T10:26:53.273Z,29.06
2019-02-23T10:28:02.338Z,28.87
2019-02-23T10:29:11.719Z,28.97
2019-02-23T10:30:20.989Z,28.97
2019-02-23T10:31:30.063Z,28.77
2019-02-23T10:32:39.389Z,28.78
2019-02-23T10:33:50.134Z,28.87
2019-02-23T10:34:59.416Z,28.88
2019-02-23T10:36:09.249Z,28.58
2019-02-23T10:37:18.538Z,28.78
2019-02-23T10:38:27.641Z,28.78
2019-02-23T10:39:36.763Z,28.5
2019-02-23T10:40:46.401Z,28.69
2019-02-23T10:41:56.240Z,28.69
2019-02-23T10:43:05.353Z,28.78
2019-02-23T10:44:14.700Z,28.69
2019-02-23T10:45:24.345Z,28.59
2019-02-23T10:46:33.898Z,28.69
2019-02-23T10:47:43.377Z,28.5
2019-02-23T10:48:54.859Z,28.5
2019-02-23T10:50:05.303Z,28.69
2019-02-23T10:51:15.721Z,28.59
2019-02-23T10:52:25.400Z,28.61
2019-02-23T10:53:35.385Z,28.51
2019-02-23T10:54:47.108Z,28.41
2019-02-23T10:55:56.543Z,28.51
2019-02-23T10:57:05.926Z,28.51
2019-02-23T10:58:14.992Z,28.51
2019-02-23T10:59:23.869Z,28.41
2019-02-23T11:00:32.932Z,28.31
2019-02-23T11:01:41.980Z,28.31
2019-02-23T11:02:50.843Z,28.41
2019-02-23T11:04:00.572Z,28.51
2019-02-23T11:05:10.222Z,28.51
2019-02-23T11:06:19.326Z,28.51
2019-02-23T11:07:28.838Z,28.51
2019-02-23T11:08:38.615Z,28.51
2019-02-23T11:09:47.346Z,28.61
2019-02-23T11:10:56.402Z,28.61
2019-02-23T11:12:05.998Z,28.8
2019-02-23T11:13:15.824Z,28.8
2019-02-23T11:14:25.452Z,28.8
2019-02-23T11:15:34.481Z,28.7
2019-02-23T11:16:44.007Z,28.7
2019-02-23T11:17:53.606Z,28.61
2019-02-23T11:19:05.318Z,28.7
2019-02-23T11:20:14.707Z,28.7
2019-02-23T11:21:24.276Z,28.8
2019-02-23T11:22:33.586Z,28.7
2019-02-23T11:23:46.776Z,28.61
2019-02-23T11:24:56.149Z,28.99
2019-02-23T11:26:05.743Z,28.8
2019-02-23T11:27:15.096Z,28.8
2019-02-23T11:28:24.506Z,28.61
2019-02-23T11:29:34.015Z,28.61
2019-02-23T11:30:43.840Z,28.89
2019-02-23T11:31:52.919Z,28.89
2019-02-23T11:33:01.968Z,28.89
2019-02-23T11:34:10.826Z,28.99
2019-02-23T11:35:20.508Z,28.99
2019-02-23T11:36:29.782Z,28.99
2019-02-23T11:37:39.083Z,28.99
2019-02-23T11:38:48.499Z,28.99
2019-02-23T11:39:57.517Z,29.09
2019-02-23T11:41:06.386Z,28.99
2019-02-23T11:42:15.816Z,29.09
2019-02-23T11:43:25.325Z,28.99
2019-02-23T11:44:34.356Z,29.09
2019-02-23T11:45:43.885Z,29.09
2019-02-23T11:47:02.623Z,29.09
2019-02-23T11:48:11.947Z,28.99
2019-02-23T11:49:22.016Z,28.99
2019-02-23T11:50:31.792Z,28.99
2019-02-23T11:51:41.489Z,28.99
2019-02-23T11:52:50.783Z,28.99
2019-02-23T11:54:00.080Z,28.99
2019-02-23T11:55:08.812Z,28.99
2019-02-23T11:56:18.056Z,28.89
2019-02-23T11:57:27.310Z,28.89
2019-02-23T11:58:36.301Z,29.47
2019-02-23T11:59:45.074Z,29.47
2019-02-23T12:00:54.264Z,29.46
2019-02-23T12:02:03.488Z,29.27
2019-02-23T12:03:12.524Z,29.36
2019-02-23T12:04:22.277Z,29.38
2019-02-23T12:05:32.079Z,29.27
2019-02-23T12:06:41.338Z,29.27
2019-02-23T12:07:50.843Z,29.27
2019-02-23T12:09:00.364Z,29.28
2019-02-23T12:10:10.120Z,29.17
2019-02-23T12:11:19.570Z,29.17
2019-02-23T12:12:29.448Z,29.36
2019-02-23T12:13:38.723Z,29.46
2019-02-23T12:14:47.822Z,29.36
2019-02-23T12:15:56.548Z,29.27
2019-02-23T12:17:05.535Z,29.46
2019-02-23T12:18:14.866Z,29.27
2019-02-23T12:19:24.131Z,29.17
2019-02-23T12:20:32.902Z,29.27
2019-02-23T12:21:42.207Z,29.36
2019-02-23T12:22:51.215Z,29.36
2019-02-23T12:24:08.207Z,29.27
2019-02-23T12:25:18.811Z,29.27
2019-02-23T12:26:28.624Z,29.36
2019-02-23T12:27:37.729Z,29.19
2019-02-23T12:28:46.732Z,29.19
2019-02-23T12:29:55.978Z,29.28
2019-02-23T12:31:05.642Z,29.27
2019-02-23T12:32:15.244Z,29.28
2019-02-23T12:33:24.266Z,29.38
2019-02-23T12:34:33.346Z,29.28
2019-02-23T12:35:42.894Z,29.19
2019-02-23T12:36:52.029Z,29.28
2019-02-23T12:38:02.693Z,29.09
2019-02-23T12:39:12.515Z,29.19
2019-02-23T12:40:22.119Z,29.19
2019-02-23T12:41:31.212Z,29.19
2019-02-23T12:42:41.306Z,29.19
2019-02-23T12:43:50.568Z,29.28
2019-02-23T12:44:59.873Z,29.28
2019-02-23T12:46:08.948Z,29.28
2019-02-23T12:47:18.895Z,29.28
2019-02-23T12:48:28.242Z,29.38
2019-02-23T12:49:37.567Z,29.09
2019-02-23T12:50:47.198Z,29.09
2019-02-23T12:51:56.466Z,29.28
2019-02-23T12:53:05.567Z,29.38
2019-02-23T12:54:19.454Z,29.28
2019-02-23T12:55:28.729Z,29.19
2019-02-23T12:56:37.995Z,29.38
2019-02-23T12:57:47.547Z,29.19
2019-02-23T12:58:56.353Z,29.19
2019-02-23T13:00:05.852Z,29.19
2019-02-23T13:01:15.346Z,29.19
2019-02-23T13:02:25.150Z,29.19
2019-02-23T13:03:34.030Z,29.09
2019-02-23T13:04:43.111Z,29.19
2019-02-23T13:05:52.783Z,29.28
2019-02-23T13:07:01.807Z,29.19
2019-02-23T13:08:10.888Z,29.19
2019-02-23T13:09:20.603Z,29.38
2019-02-23T13:10:29.946Z,29.28
2019-02-23T13:11:39.226Z,29.38
2019-02-23T13:12:48.486Z,29.28
2019-02-23T13:13:58.369Z,29.38
2019-02-23T13:15:07.235Z,29.47
2019-02-23T13:16:16.779Z,29.28
2019-02-23T13:17:26.058Z,29.47
2019-02-23T13:18:35.634Z,29.38
2019-02-23T13:19:45.471Z,29.67
2019-02-23T13:20:55.558Z,29.57
2019-02-23T13:22:05.139Z,29.38
2019-02-23T13:23:14.430Z,29.47
2019-02-23T13:24:31.060Z,29.96
2019-02-23T13:25:40.191Z,29.47
2019-02-23T13:26:49.825Z,29.67
2019-02-23T13:27:59.559Z,29.57
2019-02-23T13:29:08.521Z,29.96
2019-02-23T13:30:18.135Z,29.96
2019-02-23T13:31:27.676Z,29.67
2019-02-23T13:32:37.318Z,29.77
2019-02-23T13:33:46.844Z,29.47
2019-02-23T13:34:56.777Z,29.57
2019-02-23T13:36:05.951Z,30.25
2019-02-23T13:37:16.022Z,30.05
2019-02-23T13:38:24.980Z,29.86
2019-02-23T13:39:35.342Z,29.86
2019-02-23T13:40:45.748Z,29.86
2019-02-23T13:41:55.666Z,29.77
2019-02-23T13:43:05.097Z,29.96
2019-02-23T13:44:14.567Z,29.96
2019-02-23T13:45:26.896Z,29.96
2019-02-23T13:46:35.759Z,30.05
2019-02-23T13:47:45.037Z,30.14
2019-02-23T13:48:55.031Z,30.05
2019-02-23T13:50:04.966Z,29.96
2019-02-23T13:51:14.311Z,30.05
2019-02-23T13:52:23.538Z,29.96
2019-02-23T13:53:33.404Z,29.77
2019-02-23T13:54:42.323Z,29.77
2019-02-23T13:55:51.197Z,29.86
2019-02-23T13:57:00.379Z,29.96
2019-02-23T13:58:09.600Z,29.86
2019-02-23T13:59:21.781Z,29.96
2019-02-23T14:00:30.965Z,29.86
2019-02-23T14:01:40.447Z,29.77
2019-02-23T14:02:50.006Z,29.77
2019-02-23T14:03:59.217Z,29.96
2019-02-23T14:05:08.572Z,30.05
2019-02-23T14:06:17.592Z,29.96
2019-02-23T14:07:27.760Z,29.47
2019-02-23T14:08:37.708Z,29.47
2019-02-23T14:09:47.005Z,29.49
2019-02-23T14:10:56.739Z,29.49
2019-02-23T14:12:06.565Z,29.49
2019-02-23T14:13:16.181Z,29.86
2019-02-23T14:14:25.575Z,29.69
2019-02-23T14:15:34.869Z,29.69
2019-02-23T14:16:44.687Z,29.88
2019-02-23T14:17:55.149Z,29.88
2019-02-23T14:19:04.872Z,29.97
2019-02-23T14:20:14.554Z,29.39
2019-02-23T14:21:24.631Z,29.49
2019-02-23T14:22:33.518Z,29.69
2019-02-23T14:23:42.838Z,29.49
2019-02-23T14:24:53.442Z,29.39
2019-02-23T14:26:02.275Z,29.59
2019-02-23T14:27:11.390Z,29.59
2019-02-23T14:28:20.922Z,29.59
2019-02-23T14:29:30.565Z,29.69
2019-02-23T14:30:39.776Z,29.49
2019-02-23T14:31:49.335Z,29.59
2019-02-23T14:32:59.235Z,29.59
2019-02-23T14:34:08.814Z,29.88
2019-02-23T14:35:18.394Z,29.88
2019-02-23T14:36:27.930Z,29.78
2019-02-23T14:37:37.503Z,29.97
2019-02-23T14:38:47.188Z,29.69
2019-02-23T14:39:59.011Z,29.78
2019-02-23T14:41:08.783Z,29.78
2019-02-23T14:42:18.462Z,29.97
2019-02-23T14:43:27.482Z,29.59
2019-02-23T14:44:36.531Z,29.49
2019-02-23T14:45:46.147Z,30.17
2019-02-23T14:46:55.538Z,29.88
2019-02-23T14:48:05.197Z,29.78
2019-02-23T14:49:16.432Z,29.88
2019-02-23T14:50:26.717Z,29.78
2019-02-23T14:51:36.497Z,29.97
2019-02-23T14:52:46.165Z,29.86
2019-02-23T14:53:55.456Z,29.97
2019-02-23T14:55:05.477Z,30.07
2019-02-23T14:56:15.085Z,29.97
2019-02-23T14:57:24.357Z,30.25
2019-02-23T14:58:33.756Z,30.27
2019-02-23T14:59:43.397Z,30.36
2019-02-23T15:00:53.222Z,30.25